Time;durP1;ratioP1;P1;durP2;ratioP2;P2;SDS_P1;SDS_P2;PMS_P1;PMS_P2;Temp;Humidity;BMP_temperature;BMP_pressure;BME280_temperature;BME280_humidity;BME280_pressure;Samples;Min_cycle;Max_cycle;Signal;HPM_P1;HPM_P2
2022/07/16 00:03:28;;;;;;;0.30;0.30;;;;;;;15.75;78.19;101622.59;6200119;28;20054;-78
2022/07/16 00:06:30;;;;;;;0.80;0.47;;;;;;;15.77;78.91;101624.22;6200450;28;20054;-79
2022/07/16 00:09:31;;;;;;;0.90;0.50;;;;;;;15.76;79.46;101634.88;6200549;28;20050;-79
2022/07/16 00:12:34;;;;;;;3.83;0.35;;;;;;;15.75;79.25;101625.25;6200323;28;20050;-78
2022/07/16 00:15:35;;;;;;;0.60;0.30;;;;;;;15.77;79.48;101624.22;6200415;28;20061;-79
2022/07/16 00:21:57;;;;;;;0.93;0.43;;;;;;;15.80;79.01;101621.34;6200578;28;20054;-78
2022/07/16 00:24:59;;;;;;;0.50;0.50;;;;;;;15.82;78.89;101614.19;6199991;28;20053;-79
2022/07/16 00:28:01;;;;;;;1.70;0.75;;;;;;;15.84;78.91;101616.72;6201504;28;20046;-79
2022/07/16 00:31:03;;;;;;;0.73;0.68;;;;;;;15.86;79.40;101622.81;6199869;28;20054;-79
2022/07/16 00:34:06;;;;;;;0.80;0.60;;;;;;;15.90;79.60;101622.53;6201132;28;20046;-79
2022/07/16 00:37:07;;;;;;;1.40;0.82;;;;;;;15.94;79.83;101612.56;6199709;28;20055;-78
2022/07/16 00:40:09;;;;;;;0.98;0.55;;;;;;;15.99;79.90;101607.84;6199916;28;20054;-79
2022/07/16 00:43:13;;;;;;;0.50;0.50;;;;;;;16.10;79.77;101601.84;6200051;28;20046;-78
2022/07/16 00:46:15;;;;;;;0.77;0.50;;;;;;;16.12;79.67;101603.44;6199799;28;20050;-78
2022/07/16 00:49:19;;;;;;;0.90;0.70;;;;;;;16.13;80.14;101596.38;6199885;28;20077;-78
2022/07/16 00:52:20;;;;;;;1.23;0.70;;;;;;;16.15;80.32;101589.16;6199520;28;20057;-77
2022/07/16 00:55:22;;;;;;;0.45;0.43;;;;;;;16.15;80.54;101592.66;6199597;28;20050;-78
2022/07/16 00:58:24;;;;;;;0.93;0.80;;;;;;;16.18;80.55;101588.97;6200847;28;20056;-78
2022/07/16 01:01:26;;;;;;;1.15;0.68;;;;;;;16.18;80.49;101588.97;6199499;28;20426;-79
2022/07/16 01:04:27;;;;;;;1.55;0.60;;;;;;;16.21;80.94;101588.75;6199147;28;20062;-79
2022/07/16 01:07:29;;;;;;;2.53;1.15;;;;;;;16.19;81.30;101585.38;6202926;28;20050;-78
2022/07/16 01:10:31;;;;;;;0.68;0.63;;;;;;;16.18;81.43;101578.38;6204787;28;20050;-78
2022/07/16 01:13:35;;;;;;;0.85;0.57;;;;;;;16.14;81.11;101575.06;6204559;28;20050;-78
2022/07/16 01:16:37;;;;;;;2.35;0.93;;;;;;;16.12;81.75;101570.78;6204150;28;20518;-79
2022/07/16 01:19:38;;;;;;;1.80;1.00;;;;;;;16.11;81.75;101580.53;6204537;28;20054;-78
2022/07/16 01:22:40;;;;;;;1.10;0.52;;;;;;;16.08;81.77;101577.22;6204469;28;20050;-78
2022/07/16 01:25:42;;;;;;;0.82;0.80;;;;;;;16.05;81.96;101572.97;6203783;28;20046;-78
2022/07/16 01:28:44;;;;;;;0.55;0.55;;;;;;;16.04;82.16;101560.69;6205334;28;20046;-78
2022/07/16 01:31:45;;;;;;;0.70;0.70;;;;;;;16.01;82.50;101563.50;6203909;28;20054;-78
2022/07/16 01:34:46;;;;;;;1.27;0.85;;;;;;;16.00;82.79;101571.56;6204076;28;20461;-78
2022/07/16 01:37:48;;;;;;;1.10;0.80;;;;;;;15.96;82.62;101565.59;6204071;28;20061;-79
2022/07/16 01:40:51;;;;;;;1.25;0.70;;;;;;;15.97;82.87;101567.31;6201574;28;20047;-79
2022/07/16 01:43:52;;;;;;;2.28;0.75;;;;;;;15.97;82.62;101559.34;6203321;28;20046;-78
2022/07/16 01:46:54;;;;;;;3.05;1.25;;;;;;;15.95;82.51;101569.22;6203696;28;20057;-78
2022/07/16 01:49:56;;;;;;;0.98;0.70;;;;;;;15.93;82.48;101571.09;6203166;28;20054;-79
2022/07/16 01:52:57;;;;;;;1.42;0.70;;;;;;;15.94;82.16;101567.47;6203268;28;20058;-79
2022/07/16 01:56:00;;;;;;;1.50;0.60;;;;;;;15.93;82.45;101568.44;6203447;28;20050;-80
2022/07/16 01:59:02;;;;;;;2.30;0.90;;;;;;;15.98;81.87;101558.38;6204338;28;20050;-78
2022/07/16 02:02:03;;;;;;;1.35;0.75;;;;;;;16.00;81.94;101560.97;6203264;28;20057;-79
2022/07/16 02:05:06;;;;;;;1.55;0.80;;;;;;;15.95;81.84;101562.09;6202967;28;20054;-78
2022/07/16 02:08:08;;;;;;;0.65;0.50;;;;;;;15.92;82.49;101564.94;6203033;28;20042;-79
2022/07/16 02:11:10;;;;;;;2.25;0.85;;;;;;;15.89;82.45;101566.91;6202559;28;20054;-79
2022/07/16 02:14:12;;;;;;;0.43;0.43;;;;;;;15.86;82.54;101569.78;6200900;28;20057;-79
2022/07/16 02:17:13;;;;;;;2.35;0.60;;;;;;;15.84;82.51;101558.41;6215242;28;20413;-78
2022/07/16 02:20:14;;;;;;;0.95;0.70;;;;;;;15.83;82.99;101568.16;6227376;28;20053;-78
2022/07/16 02:23:16;;;;;;;1.42;0.77;;;;;;;15.81;83.05;101548.88;6227174;28;20050;-79
2022/07/16 02:26:19;;;;;;;1.17;0.70;;;;;;;15.81;83.17;101558.63;6225521;28;20050;-77
2022/07/16 02:29:20;;;;;;;1.52;0.65;;;;;;;15.82;82.83;101553.22;6226085;28;20125;-79
2022/07/16 02:32:22;;;;;;;1.42;1.00;;;;;;;15.80;83.10;101560.41;6226819;28;20050;-79
2022/07/16 02:35:23;;;;;;;1.85;1.05;;;;;;;15.79;82.83;101557.84;6226505;28;20058;-79
2022/07/16 02:38:25;;;;;;;1.63;0.80;;;;;;;15.78;83.29;101557.00;6226743;28;20046;-80
2022/07/16 02:41:27;;;;;;;0.68;0.57;;;;;;;15.79;82.65;101548.09;6226362;28;20050;-79
2022/07/16 02:44:29;;;;;;;1.33;0.90;;;;;;;15.72;83.15;101547.63;6226372;28;20065;-78
2022/07/16 02:47:30;;;;;;;3.05;1.00;;;;;;;15.74;83.04;101544.88;6226633;28;20046;-78
2022/07/16 02:50:31;;;;;;;1.42;0.90;;;;;;;15.71;82.95;101532.69;6219955;28;20050;-78
2022/07/16 02:53:33;;;;;;;1.33;0.90;;;;;;;15.73;82.49;101532.59;6213354;28;20046;-79
2022/07/16 02:56:36;;;;;;;1.67;0.90;;;;;;;15.73;83.02;101524.63;6214581;28;20045;-80
2022/07/16 02:59:39;;;;;;;2.05;0.70;;;;;;;15.73;82.28;101528.13;6209458;28;20050;-79
2022/07/16 03:02:41;;;;;;;0.60;0.60;;;;;;;15.78;82.43;101530.50;6201845;28;20053;-79
2022/07/16 03:05:42;;;;;;;1.00;0.70;;;;;;;15.78;82.42;101530.50;6204000;28;20073;-78
2022/07/16 03:08:44;;;;;;;1.33;1.08;;;;;;;15.78;82.51;101534.94;6217476;28;20057;-78
2022/07/16 03:11:47;;;;;;;2.13;0.65;;;;;;;15.83;81.82;101544.31;6217860;28;20046;-78
2022/07/16 03:14:48;;;;;;;2.22;0.80;;;;;;;15.84;82.41;101543.34;6219521;28;20046;-78
2022/07/16 03:17:49;;;;;;;1.35;1.02;;;;;;;15.83;85.02;101540.81;6209143;28;20417;-78
2022/07/16 03:20:51;;;;;;;1.80;0.80;;;;;;;15.74;86.40;101552.84;6214536;28;20057;-78
2022/07/16 03:23:52;;;;;;;1.55;0.80;;;;;;;15.66;88.42;101555.94;6212938;28;20046;-77
2022/07/16 03:26:55;;;;;;;1.55;0.70;;;;;;;15.65;87.77;101558.72;6213502;28;20049;-78
2022/07/16 03:29:56;;;;;;;3.25;1.00;;;;;;;15.68;88.02;101558.53;6217609;28;20058;-78
2022/07/16 03:32:58;;;;;;;1.13;0.90;;;;;;;15.66;88.30;101563.91;6213905;28;20056;-78
2022/07/16 03:35:59;;;;;;;0.98;0.85;;;;;;;15.65;88.71;101567.50;6212941;28;20050;-78
2022/07/16 03:39:04;;;;;;;1.90;0.88;;;;;;;15.70;89.75;101578.66;6212824;28;20073;-78
2022/07/16 03:42:07;;;;;;;1.88;1.00;;;;;;;15.63;91.36;101582.63;6206367;28;20487;-77
2022/07/16 03:45:10;;;;;;;0.93;0.80;;;;;;;15.56;93.02;101581.28;6211121;28;20045;-78
2022/07/16 03:48:11;;;;;;;1.75;0.80;;;;;;;15.51;95.17;101583.38;6212656;28;20050;-79
2022/07/16 03:51:13;;;;;;;1.85;1.08;;;;;;;15.47;97.42;101598.59;6211214;28;20049;-77
2022/07/16 03:54:14;;;;;;;2.38;1.20;;;;;;;15.39;99.16;101589.38;6210409;28;20047;-78
2022/07/16 03:57:16;;;;;;;2.17;1.35;;;;;;;15.31;100.00;101589.88;6211794;28;20041;-78
2022/07/16 04:00:18;;;;;;;2.40;1.25;;;;;;;15.16;100.00;101594.25;6211306;28;20050;-78
2022/07/16 04:03:19;;;;;;;2.67;1.33;;;;;;;15.04;100.00;101595.00;6219029;28;20058;-78
2022/07/16 04:06:21;;;;;;;1.50;1.23;;;;;;;15.03;100.00;101610.94;6224844;28;20050;-78
2022/07/16 04:09:22;;;;;;;1.77;1.27;;;;;;;14.93;100.00;101600.91;6224705;28;20786;-79
2022/07/16 04:12:25;;;;;;;1.65;1.05;;;;;;;14.96;100.00;101603.38;6224703;28;20053;-79
2022/07/16 04:15:26;;;;;;;2.17;1.20;;;;;;;14.96;100.00;101607.81;6224576;28;20449;-78
2022/07/16 04:18:28;;;;;;;1.75;1.20;;;;;;;14.89;100.00;101607.31;6224753;28;20050;-78
2022/07/16 04:21:29;;;;;;;2.05;1.20;;;;;;;14.89;100.00;101617.03;6223968;28;20409;-78
2022/07/16 04:24:30;;;;;;;3.17;1.35;;;;;;;14.82;100.00;101619.19;6222454;28;20054;-77
2022/07/16 04:27:33;;;;;;;2.60;1.45;;;;;;;14.73;100.00;101627.66;6198978;28;20414;-78
2022/07/16 04:30:35;;;;;;;1.90;1.23;;;;;;;14.69;100.00;101616.41;6199066;28;20050;-78
2022/07/16 04:33:36;;;;;;;2.03;1.30;;;;;;;14.65;100.00;101619.31;6199329;28;20050;-78
2022/07/16 04:36:37;;;;;;;4.20;1.83;;;;;;;14.63;100.00;101619.41;6199230;28;20078;-78
2022/07/16 04:39:38;;;;;;;3.40;2.03;;;;;;;14.61;100.00;101625.69;6199514;28;20691;-78
2022/07/16 04:42:43;;;;;;;5.68;1.60;;;;;;;14.62;100.00;101620.31;6198728;28;20050;-78
2022/07/16 04:45:44;;;;;;;2.95;1.80;;;;;;;14.65;100.00;101625.44;6199523;28;20391;-78
2022/07/16 04:48:46;;;;;;;3.10;1.50;;;;;;;14.68;100.00;101622.63;6199353;28;20046;-78
2022/07/16 04:51:47;;;;;;;1.70;1.50;;;;;;;14.73;100.00;101621.53;6199284;28;20053;-78
2022/07/16 04:54:48;;;;;;;2.03;1.40;;;;;;;14.74;100.00;101626.72;6203095;28;20521;-78
2022/07/16 04:57:51;;;;;;;2.38;1.58;;;;;;;14.77;100.00;101620.41;6202017;28;20050;-79
2022/07/16 05:00:52;;;;;;;3.55;1.58;;;;;;;14.81;100.00;101621.94;6202228;28;20433;-80
2022/07/16 05:03:54;;;;;;;1.38;1.25;;;;;;;14.87;100.00;101626.88;6201997;28;20061;-79
2022/07/16 05:06:55;;;;;;;2.60;2.03;;;;;;;14.87;100.00;101630.38;6202917;28;20046;-79
2022/07/16 05:09:57;;;;;;;3.17;1.30;;;;;;;14.85;100.00;101637.56;6202438;28;20053;-79
2022/07/16 05:13:00;;;;;;;2.78;2.00;;;;;;;14.87;100.00;101629.53;6203228;28;20061;-80
2022/07/16 05:16:02;;;;;;;1.63;1.02;;;;;;;14.91;100.00;101636.34;6202270;28;20054;-80
2022/07/16 05:19:04;;;;;;;2.88;1.23;;;;;;;14.92;100.00;101646.00;6202857;28;20498;-79
2022/07/16 05:22:05;;;;;;;3.80;1.40;;;;;;;14.92;100.00;101649.50;6202504;28;20061;-79
2022/07/16 05:25:09;;;;;;;1.75;1.38;;;;;;;14.97;100.00;101644.78;6203980;28;20141;-78
2022/07/16 05:28:11;;;;;;;2.13;1.60;;;;;;;15.04;100.00;101652.38;6202176;28;20069;-79
2022/07/16 05:31:13;;;;;;;1.75;1.15;;;;;;;15.07;100.00;101655.69;6202448;28;20513;-79
2022/07/16 05:34:14;;;;;;;1.98;1.20;;;;;;;15.13;100.00;101659.81;6202809;28;20130;-79
2022/07/16 05:37:16;;;;;;;1.10;1.00;;;;;;;15.18;100.00;101663.03;6201934;28;20073;-79
2022/07/16 05:40:17;;;;;;;2.35;1.42;;;;;;;15.23;100.00;101672.41;6202939;28;20066;-79
2022/07/16 05:43:20;;;;;;;1.15;1.00;;;;;;;15.22;100.00;101665.41;6198402;28;20054;-79
2022/07/16 05:46:21;;;;;;;2.45;1.35;;;;;;;15.27;100.00;101673.09;6201846;28;20038;-79
2022/07/16 05:49:22;;;;;;;1.35;1.25;;;;;;;15.32;100.00;101676.31;6201964;28;20053;-80
2022/07/16 05:52:24;;;;;;;1.85;1.13;;;;;;;15.32;100.00;101686.06;6205117;28;20045;-79
2022/07/16 05:55:25;;;;;;;1.58;1.08;;;;;;;15.35;100.00;101689.41;6207403;28;20057;-79
2022/07/16 05:58:28;;;;;;;3.08;1.10;;;;;;;15.36;100.00;101685.78;6204222;28;20042;-78
2022/07/16 06:01:29;;;;;;;0.88;0.80;;;;;;;15.39;100.00;101690.03;6206070;28;20042;-79
2022/07/16 06:04:31;;;;;;;1.20;1.00;;;;;;;15.40;100.00;101687.31;6206653;28;20050;-79
2022/07/16 06:07:32;;;;;;;4.25;1.10;;;;;;;15.42;100.00;101689.88;6207298;28;20069;-79
2022/07/16 06:10:34;;;;;;;1.70;1.20;;;;;;;15.47;100.00;101685.16;6207194;28;20059;-79
2022/07/16 06:13:36;;;;;;;2.80;1.50;;;;;;;15.51;100.00;101683.19;6206761;28;20057;-78
2022/07/16 06:16:40;;;;;;;5.10;1.10;;;;;;;15.59;100.00;101691.53;6206146;28;20132;-79
2022/07/16 06:19:42;;;;;;;1.77;0.93;;;;;;;15.65;100.00;101692.03;6207029;28;20053;-78
2022/07/16 06:22:44;;;;;;;2.58;0.80;;;;;;;15.81;100.00;101697.31;6208103;28;20414;-79
2022/07/16 06:25:45;;;;;;;0.63;0.63;;;;;;;15.86;100.00;101697.88;6207318;28;20053;-79
2022/07/16 06:28:48;;;;;;;1.65;1.13;;;;;;;15.90;100.00;101709.16;6207173;28;20050;-79
2022/07/16 06:31:49;;;;;;;2.33;0.57;;;;;;;15.89;100.00;101704.78;6207129;28;20494;-79
2022/07/16 06:34:50;;;;;;;1.45;0.95;;;;;;;15.98;100.00;101710.38;6206559;28;20053;-79
2022/07/16 06:37:52;;;;;;;4.40;0.73;;;;;;;16.06;100.00;101720.50;6206299;28;20050;-80
2022/07/16 06:40:53;;;;;;;3.00;0.90;;;;;;;16.13;98.47;101710.41;6204729;28;20513;-76
2022/07/16 06:43:56;;;;;;;1.15;0.40;;;;;;;16.20;97.54;101717.88;6205477;28;20399;-78
2022/07/16 06:46:57;;;;;;;4.55;0.50;;;;;;;16.23;94.90;101712.38;6204834;28;20050;-80
2022/07/16 06:49:58;;;;;;;3.10;0.50;;;;;;;16.29;96.09;101726.22;6204505;28;20414;-80
2022/07/16 06:52:59;;;;;;;2.22;0.80;;;;;;;16.42;95.00;101719.19;6205653;28;20050;-79
2022/07/16 06:56:02;;;;;;;1.08;0.70;;;;;;;16.46;92.51;101720.72;6205089;28;20054;-80
2022/07/16 06:59:05;;;;;;;0.50;0.40;;;;;;;16.54;94.09;101738.81;6204807;28;20050;-79
2022/07/16 07:02:06;;;;;;;1.83;0.68;;;;;;;16.54;91.89;101720.25;6203876;28;20054;-80
2022/07/16 07:05:08;;;;;;;2.95;0.60;;;;;;;16.58;93.03;101729.69;6203231;28;20051;-80
2022/07/16 07:08:09;;;;;;;4.47;1.02;;;;;;;16.58;92.93;101725.25;6204393;28;20046;-80
2022/07/16 07:11:11;;;;;;;0.50;0.50;;;;;;;16.52;90.94;101730.94;6213064;28;20050;-80
2022/07/16 07:14:14;;;;;;;2.28;0.70;;;;;;;16.55;91.96;101733.41;6213159;28;20057;-79
2022/07/16 07:17:15;;;;;;;0.65;0.50;;;;;;;16.59;92.23;101731.41;6202895;28;20094;-80
2022/07/16 07:20:16;;;;;;;0.60;0.40;;;;;;;16.68;91.10;101730.84;6208375;28;20637;-80
2022/07/16 07:23:18;;;;;;;0.98;0.60;;;;;;;16.68;89.15;101728.19;6228125;28;20057;-80
2022/07/16 07:26:19;;;;;;;1.23;0.38;;;;;;;16.63;87.90;101732.94;6219161;28;20049;-81
2022/07/16 07:29:22;;;;;;;3.15;0.60;;;;;;;16.69;85.72;101743.16;6207026;28;20509;-77
2022/07/16 07:32:23;;;;;;;2.47;0.82;;;;;;;16.64;85.78;101750.56;6200736;28;20435;-80
2022/07/16 07:35:25;;;;;;;2.70;0.80;;;;;;;16.61;86.78;101751.59;6202001;28;20050;-80
2022/07/16 07:38:26;;;;;;;1.45;0.50;;;;;;;16.70;87.46;101756.31;6215500;28;20053;-79
2022/07/16 07:41:27;;;;;;;0.63;0.50;;;;;;;16.76;86.37;101751.59;6221022;28;20054;-79
2022/07/16 07:44:30;;;;;;;0.63;0.57;;;;;;;16.88;86.89;101746.38;6208713;28;20046;-79
2022/07/16 07:47:32;;;;;;;1.40;0.57;;;;;;;17.07;87.66;101750.50;6203814;28;20073;-79
2022/07/16 07:50:33;;;;;;;0.73;0.65;;;;;;;17.15;84.75;101749.06;6207053;28;20050;-81
2022/07/16 07:53:36;;;;;;;2.17;0.55;;;;;;;17.24;79.96;101771.53;6202427;28;20054;-80
2022/07/16 07:56:38;;;;;;;1.27;0.45;;;;;;;17.18;80.00;101767.47;6202977;28;20082;-80
2022/07/16 07:59:40;;;;;;;2.30;0.60;;;;;;;17.11;78.23;101768.78;6202960;28;20050;-79
2022/07/16 08:02:45;;;;;;;2.75;1.08;;;;;;;17.05;79.44;101778.97;6201516;28;20054;-79
2022/07/16 08:05:46;;;;;;;2.40;0.40;;;;;;;17.18;77.75;101770.13;6203067;28;20057;-80
2022/07/16 08:08:48;;;;;;;1.10;0.35;;;;;;;17.30;74.84;101768.44;6202296;28;20046;-80
2022/07/16 08:11:49;;;;;;;1.85;0.50;;;;;;;17.28;74.03;101766.88;6200716;28;20057;-80
2022/07/16 08:14:52;;;;;;;3.40;0.80;;;;;;;17.20;75.61;101778.81;6200723;28;20050;-79
2022/07/16 08:17:53;;;;;;;0.35;0.30;;;;;;;17.28;76.39;101780.16;6200379;28;20054;-79
2022/07/16 08:20:54;;;;;;;0.50;0.40;;;;;;;17.40;76.25;101785.53;6221787;28;20049;-79
2022/07/16 08:27:15;;;;;;;0.90;0.70;;;;;;;17.48;74.00;101793.81;6225076;28;20136;-80
2022/07/16 08:30:18;;;;;;;1.40;0.50;;;;;;;17.46;75.58;101792.22;6226677;28;20041;-80
2022/07/16 08:33:19;;;;;;;2.45;0.80;;;;;;;17.35;76.50;101821.28;6226307;28;20517;-80
2022/07/16 08:36:21;;;;;;;0.52;0.50;;;;;;;17.09;75.70;101821.19;6225139;28;20054;-81
2022/07/16 08:39:23;;;;;;;3.15;0.85;;;;;;;16.99;76.99;101823.56;6224769;28;20050;-80
2022/07/16 08:42:25;;;;;;;1.00;0.50;;;;;;;17.01;77.07;101817.31;6224352;28;20054;-80
2022/07/16 08:45:27;;;;;;;5.85;0.90;;;;;;;17.16;75.89;101817.16;6224255;28;20050;-78
2022/07/16 08:48:30;;;;;;;2.95;0.60;;;;;;;17.37;74.50;101830.03;6196877;28;20042;-80
2022/07/16 08:51:34;;;;;;;4.68;0.57;;;;;;;17.43;71.90;101843.75;6201740;28;20058;-81
2022/07/16 08:54:37;;;;;;;3.70;0.55;;;;;;;17.39;71.60;101844.06;6201312;28;20050;-80
2022/07/16 08:57:41;;;;;;;2.70;0.88;;;;;;;17.20;69.31;101852.38;6197599;28;20069;-79
2022/07/16 09:00:43;;;;;;;0.47;0.35;;;;;;;17.29;66.73;101853.59;6202215;28;20046;-81
2022/07/16 09:03:45;;;;;;;2.15;1.20;;;;;;;17.44;65.98;101850.81;6211078;28;20051;-80
2022/07/16 09:06:46;;;;;;;2.10;0.35;;;;;;;17.48;65.05;101856.75;6192214;28;20549;-82
2022/07/16 09:09:48;;;;;;;1.27;0.60;;;;;;;17.52;64.75;101865.38;6197535;28;20042;-81
2022/07/16 09:12:50;;;;;;;2.03;0.68;;;;;;;17.52;63.14;101862.72;6194371;28;20076;-79
2022/07/16 09:15:52;;;;;;;2.50;0.75;;;;;;;17.64;61.07;101867.25;6199673;28;20050;-80
2022/07/16 09:19:02;;;;;;;1.55;0.40;;;;;;;17.68;60.49;101863.44;6200592;28;20073;-73
2022/07/16 09:22:06;;;;;;;3.40;0.45;;;;;;;17.78;61.51;101879.69;6200321;28;20046;-79
2022/07/16 09:25:10;;;;;;;0.28;0.20;;;;;;;17.97;60.20;101875.69;6200309;28;20133;-78
2022/07/16 09:28:12;;;;;;;1.77;0.43;;;;;;;18.06;58.34;101876.03;6205524;28;20046;-78
2022/07/16 09:31:34;;;;;;;0.13;0.13;;;;;;;18.16;57.17;101883.31;6206359;28;20058;-79
2022/07/16 09:34:35;;;;;;;1.83;0.47;;;;;;;17.89;48.11;101890.47;6204842;28;20061;-79
2022/07/16 09:37:57;;;;;;;0.60;0.32;;;;;;;17.74;50.67;101889.66;6205785;28;20050;-80
2022/07/16 09:41:01;;;;;;;1.92;0.47;;;;;;;17.81;51.72;101896.31;6205288;28;20050;-80
2022/07/16 09:44:03;;;;;;;4.57;1.02;;;;;;;17.78;52.07;101883.19;6205634;28;20076;-79
2022/07/16 09:47:08;;;;;;;1.27;0.38;;;;;;;17.92;53.05;101893.78;6206371;28;20061;-79
2022/07/16 09:50:09;;;;;;;1.15;0.30;;;;;;;17.99;53.32;101894.25;6207964;28;20058;-79
2022/07/16 09:53:14;;;;;;;0.70;0.22;;;;;;;18.03;54.26;101893.06;6206860;28;20050;-79
2022/07/16 09:56:17;;;;;;;2.15;0.57;;;;;;;18.25;53.91;101906.63;6208021;28;20050;-80
2022/07/16 09:59:20;;;;;;;1.85;0.50;;;;;;;18.43;53.09;101895.69;6206347;28;20050;-79
2022/07/16 10:02:23;;;;;;;2.40;0.60;;;;;;;18.39;55.48;101899.53;6207315;28;20053;-79
2022/07/16 10:05:24;;;;;;;1.90;0.35;;;;;;;18.20;58.23;101910.56;6206698;28;20133;-80
2022/07/16 10:08:25;;;;;;;2.88;0.60;;;;;;;18.18;57.65;101931.97;6206437;28;20058;-80
2022/07/16 10:11:27;;;;;;;1.67;0.32;;;;;;;18.12;58.82;101937.69;6206043;28;20053;-80
2022/07/16 10:14:32;;;;;;;1.67;0.47;;;;;;;18.02;60.06;101939.25;6206271;28;20050;-79
2022/07/16 10:17:37;;;;;;;2.75;0.40;;;;;;;17.84;60.88;101943.94;6207770;28;20490;-79
2022/07/16 10:20:38;;;;;;;0.88;0.38;;;;;;;17.84;61.64;101941.28;6204379;28;20049;-80
2022/07/16 10:23:41;;;;;;;2.28;0.52;;;;;;;17.97;60.61;101936.88;6202382;28;20049;-79
2022/07/16 10:26:43;;;;;;;0.32;0.28;;;;;;;18.09;58.45;101937.88;6199752;28;20410;-79
2022/07/16 10:29:44;;;;;;;1.17;0.75;;;;;;;18.23;56.07;101931.66;6200609;28;20046;-78
2022/07/16 10:33:18;;;;;;;0.30;0.30;;;;;;;18.50;52.67;101940.44;6205015;28;20497;-78
2022/07/16 10:36:46;;;;;;;2.20;0.55;;;;;;;18.61;48.76;101942.38;6206480;28;20050;-79
2022/07/16 10:40:04;;;;;;;4.05;0.63;;;;;;;18.54;48.53;101948.25;6193240;28;20078;-81
2022/07/16 10:43:17;;;;;;;1.13;0.38;;;;;;;18.69;50.12;101965.84;6179272;28;20490;-80
2022/07/16 10:46:26;;;;;;;1.15;0.40;;;;;;;18.78;50.48;101977.69;6195420;28;20046;-81
2022/07/16 10:49:30;;;;;;;1.55;0.22;;;;;;;18.57;48.97;101969.31;6203436;28;20050;-82
2022/07/16 10:52:42;;;;;;;0.68;0.30;;;;;;;18.51;48.76;101966.09;6201709;28;20053;-80
2022/07/16 10:55:43;;;;;;;0.35;0.35;;;;;;;18.51;51.75;101968.75;6194259;28;20100;-81
2022/07/16 10:58:46;;;;;;;0.50;0.30;;;;;;;18.62;53.43;101983.16;6201241;28;20057;-80
2022/07/16 11:01:51;;;;;;;3.53;0.40;;;;;;;18.74;53.43;101991.22;6201620;28;20045;-80
2022/07/16 11:04:54;;;;;;;0.45;0.20;;;;;;;18.58;53.80;101995.00;6202162;28;20491;-81
2022/07/16 11:08:06;;;;;;;0.43;0.35;;;;;;;18.77;52.13;101990.16;6203617;28;20046;-79
2022/07/16 11:11:07;;;;;;;2.50;0.43;;;;;;;18.76;52.24;101991.13;6202030;28;20530;-79
2022/07/16 11:14:10;;;;;;;2.03;0.40;;;;;;;18.90;48.45;101983.03;6202092;28;20054;-79
2022/07/16 11:17:12;;;;;;;0.90;0.30;;;;;;;18.82;48.26;101977.38;6205499;28;20050;-80
2022/07/16 11:20:14;;;;;;;1.15;0.30;;;;;;;19.02;48.04;101974.19;6205708;28;20050;-79
2022/07/16 11:23:18;;;;;;;4.25;0.30;;;;;;;19.10;49.40;101986.13;6203917;28;20120;-80
2022/07/16 11:26:20;;;;;;;0.98;0.30;;;;;;;18.99;50.33;101987.72;6199237;28;20050;-81
2022/07/16 11:29:23;;;;;;;0.82;0.30;;;;;;;19.07;50.87;101992.50;6203840;28;20053;-81
2022/07/16 11:32:25;;;;;;;1.27;0.40;;;;;;;19.00;49.48;101993.91;6203412;28;20082;-80
2022/07/16 11:35:28;;;;;;;1.67;0.55;;;;;;;18.86;50.46;101999.34;6203285;28;20050;-80
2022/07/16 11:38:29;;;;;;;1.80;0.28;;;;;;;18.76;52.47;102001.78;6202423;28;20450;-81
2022/07/16 11:41:31;;;;;;;4.65;0.57;;;;;;;18.96;52.31;102006.59;6202248;28;20049;-81
2022/07/16 11:44:34;;;;;;;3.20;0.35;;;;;;;19.73;50.74;102004.75;6204306;28;20086;-80
2022/07/16 11:47:36;;;;;;;1.75;0.60;;;;;;;20.20;46.69;101995.06;6205412;28;20042;-79
2022/07/16 11:50:38;;;;;;;1.05;0.30;;;;;;;20.81;45.11;101995.00;6207328;28;20060;-80
2022/07/16 11:53:40;;;;;;;1.40;1.23;;;;;;;20.87;43.46;101986.50;6195602;28;20506;-81
2022/07/16 11:56:42;;;;;;;1.67;0.73;;;;;;;21.05;42.78;102002.94;6203593;28;20054;-80
2022/07/16 11:59:48;;;;;;;2.35;0.47;;;;;;;21.69;42.37;102000.53;6202253;28;20411;-78
2022/07/16 12:02:55;;;;;;;1.02;0.40;;;;;;;20.89;43.16;101995.25;6203489;28;20482;-82
2022/07/16 12:06:05;;;;;;;3.10;0.73;;;;;;;20.22;43.92;102003.84;6202443;28;20516;-80
2022/07/16 12:09:06;;;;;;;2.70;0.32;;;;;;;20.00;45.87;102014.38;6203973;28;20054;-80
2022/07/16 12:12:14;;;;;;;4.03;0.38;;;;;;;19.98;44.45;102013.63;6203579;28;20050;-81
2022/07/16 12:15:15;;;;;;;1.35;0.40;;;;;;;19.77;45.52;102021.38;6228862;28;20046;-80
2022/07/16 12:18:16;;;;;;;0.95;0.38;;;;;;;19.82;48.24;102018.38;6210718;28;20054;-80
2022/07/16 12:21:27;;;;;;;1.35;0.20;;;;;;;19.71;46.53;102025.34;6199434;28;20066;-79
2022/07/16 12:24:29;;;;;;;1.92;0.82;;;;;;;19.51;46.95;102018.72;6203470;28;20047;-81
2022/07/16 12:27:44;;;;;;;1.35;0.28;;;;;;;19.71;47.25;102028.03;6203730;28;20057;-80
2022/07/16 12:30:52;;;;;;;0.85;0.32;;;;;;;19.57;47.64;102024.59;6202672;28;20243;-79
2022/07/16 12:33:55;;;;;;;0.20;0.20;;;;;;;19.58;48.67;102032.50;6202272;28;20053;-81
2022/07/16 12:36:58;;;;;;;1.10;0.30;;;;;;;19.51;49.47;102029.38;6202361;28;20049;-80
2022/07/16 12:40:11;;;;;;;1.10;0.60;;;;;;;19.54;50.08;102032.81;6205031;28;20049;-80
2022/07/16 12:43:12;;;;;;;1.40;0.30;;;;;;;20.18;49.20;102041.56;6208834;28;20050;-80
2022/07/16 12:46:14;;;;;;;2.90;0.70;;;;;;;21.08;47.07;102028.59;6205960;28;20046;-80
2022/07/16 12:49:17;;;;;;;0.38;0.20;;;;;;;21.91;43.53;102037.13;6204650;28;20053;-78
2022/07/16 12:52:20;;;;;;;1.38;0.40;;;;;;;22.10;41.84;102027.59;6199621;28;20050;-79
2022/07/16 12:58:49;;;;;;;0.82;0.35;;;;;;;21.74;40.74;102041.16;6199990;28;20050;-80
2022/07/16 13:01:50;;;;;;;3.63;0.47;;;;;;;20.65;43.25;102047.88;6199349;28;20509;-79
2022/07/16 13:04:52;;;;;;;0.47;0.20;;;;;;;20.14;46.77;102048.06;6197045;28;20050;-80
2022/07/16 13:07:54;;;;;;;1.27;0.40;;;;;;;20.14;47.63;102058.75;6194081;28;20050;-77
2022/07/16 13:10:56;;;;;;;2.53;0.40;;;;;;;20.06;48.58;102056.63;6201641;28;20051;-79
2022/07/16 13:13:57;;;;;;;0.85;0.38;;;;;;;19.97;48.42;102058.16;6200445;28;20054;-80
2022/07/16 13:16:58;;;;;;;3.63;0.57;;;;;;;20.35;48.68;102057.19;6202037;28;20062;-79
2022/07/16 13:20:00;;;;;;;3.30;0.40;;;;;;;21.02;47.43;102061.97;6199671;28;20422;-80
2022/07/16 13:23:02;;;;;;;0.50;0.22;;;;;;;21.48;45.81;102064.66;6199984;28;20055;-76
2022/07/16 13:26:05;;;;;;;1.30;0.40;;;;;;;21.94;44.53;102071.69;6198352;28;20054;-81
2022/07/16 13:29:06;;;;;;;1.63;0.47;;;;;;;22.23;40.68;102065.84;6200575;28;20058;-79
2022/07/16 13:32:07;;;;;;;1.55;0.63;;;;;;;22.01;39.58;102062.19;6200488;28;20053;-80
2022/07/16 13:35:09;;;;;;;2.95;0.30;;;;;;;21.70;40.71;102061.09;6199017;28;20061;-80
2022/07/16 13:38:12;;;;;;;3.15;0.22;;;;;;;21.72;41.49;102050.31;6198445;28;20490;-74
2022/07/16 13:41:14;;;;;;;0.50;0.30;;;;;;;21.46;43.02;102066.56;6198582;28;20046;-74
2022/07/16 13:44:16;;;;;;;1.70;0.82;;;;;;;20.89;44.23;102067.41;6197179;28;20086;-74
2022/07/16 13:47:17;;;;;;;3.20;0.50;;;;;;;21.14;43.53;102076.22;6197419;28;20050;-73
2022/07/16 13:50:18;;;;;;;1.58;0.35;;;;;;;21.44;42.08;102076.56;6197243;28;20061;-74
2022/07/16 13:53:21;;;;;;;0.75;0.40;;;;;;;21.40;40.31;102068.91;6196045;28;20050;-73
2022/07/16 13:56:23;;;;;;;1.25;0.25;;;;;;;21.46;40.92;102079.09;6197074;28;20058;-73
2022/07/16 13:59:24;;;;;;;0.22;0.17;;;;;;;21.62;41.51;102063.56;6196966;28;20042;-74
2022/07/16 14:02:25;;;;;;;1.35;0.47;;;;;;;22.06;39.95;102079.69;6197101;28;20049;-74
2022/07/16 14:05:27;;;;;;;2.28;0.30;;;;;;;22.18;40.04;102079.59;6196791;28;20112;-74
2022/07/16 14:08:30;;;;;;;1.20;0.30;;;;;;;22.37;38.88;102076.25;6197074;28;20046;-73
2022/07/16 14:11:31;;;;;;;0.30;0.20;;;;;;;22.51;39.91;102075.13;6199904;28;20486;-80
2022/07/16 14:14:33;;;;;;;0.82;0.30;;;;;;;22.79;38.65;102073.66;6203229;28;20053;-79
2022/07/16 14:17:34;;;;;;;0.47;0.40;;;;;;;22.64;38.13;102077.63;6203100;28;20058;-80
2022/07/16 14:20:38;;;;;;;2.75;0.75;;;;;;;22.45;38.76;102075.63;6202287;28;20047;-76